createdAt,value
2018-09-13T00:17:43.072Z,98573.75
2018-09-13T00:38:30.626Z,98556.86
2018-09-13T00:59:12.319Z,98546.69
2018-09-13T01:19:56.230Z,98548.62
2018-09-13T01:40:37.645Z,98543.09
2018-09-13T02:01:18.762Z,98528.19
2018-09-13T02:22:02.936Z,98530.95
2018-09-13T02:42:41.280Z,98538.55
2018-09-13T03:03:19.624Z,98512.80
2018-09-13T03:23:58.892Z,98507.61
2018-09-13T03:44:39.081Z,98506.20
2018-09-13T04:05:21.735Z,98508.41
2018-09-13T04:26:02.835Z,98492.18
2018-09-13T04:46:46.097Z,98480.80
2018-09-13T05:07:31.513Z,98486.14
2018-09-13T05:28:15.026Z,98483.57
2018-09-13T05:48:58.024Z,98484.95
2018-09-13T06:09:41.280Z,98517.75
2018-09-13T06:30:22.963Z,98517.05
2018-09-13T06:51:02.890Z,98521.94
2018-09-13T07:11:42.167Z,98516.24
2018-09-13T07:32:21.435Z,98527.61
2018-09-13T07:53:00.686Z,98543.75
2018-09-13T08:13:39.030Z,98539.18
2018-09-13T08:34:17.655Z,98554.73
2018-09-13T08:55:01.593Z,98545.73
2018-09-13T09:15:40.825Z,98575.70
2018-09-13T09:36:23.162Z,98572.42
2018-09-13T09:57:04.271Z,98552.40
2018-09-13T10:17:49.683Z,98553.98
2018-09-13T10:38:36.346Z,98574.16
2018-09-13T11:17:24.016Z,98526.41
2018-09-13T11:38:06.365Z,98535.86
2018-09-13T11:58:44.051Z,98543.41
2018-09-13T12:19:27.960Z,98535.95
2018-09-13T12:40:05.384Z,98527.69
2018-09-13T13:00:45.570Z,98520.61
2018-09-13T13:21:25.756Z,98517.91
2018-09-13T13:42:08.097Z,98510.34
2018-09-13T14:02:50.433Z,98496.11
2018-09-13T14:23:32.773Z,98496.33
2018-09-13T14:44:24.024Z,98500.05
2018-09-13T15:05:02.639Z,98497.67
2018-09-13T15:25:44.929Z,98494.50
2018-09-13T15:46:24.890Z,98496.07
2018-09-13T16:07:07.843Z,98501.56
2018-09-13T16:27:51.409Z,98507.84
2018-09-13T16:48:33.442Z,98522.84
2018-09-13T17:09:18.233Z,98518.72
2018-09-13T17:29:57.500Z,98522.61
2018-09-13T17:50:36.774Z,98530.14
2018-09-13T18:11:16.048Z,98537.95
2018-09-13T18:32:01.447Z,98559.59
2018-09-13T18:52:41.647Z,98576.22
2018-09-13T19:13:19.059Z,98595.67
2018-09-13T19:34:02.465Z,98619.48
2018-09-13T19:54:45.578Z,98626.81
2018-09-13T20:15:26.688Z,98624.30
2018-09-13T20:36:08.389Z,98625.19
2018-09-13T20:56:51.367Z,98626.78
2018-09-13T21:17:31.554Z,98619.02
2018-09-13T21:38:14.245Z,98612.70
2018-09-13T21:58:57.162Z,98627.88
2018-09-13T22:19:39.799Z,98623.52
2018-09-13T22:40:25.822Z,98621.94
2018-09-13T23:01:06.011Z,98625.12
2018-09-13T23:21:48.654Z,98628.05
2018-09-13T23:42:32.834Z,98635.83
